Latest Weather Observations for Argyle

IDD60801

Issued at 12:31 am CST Thursday 29 September 2016 (issued every 30 minutes, with the page automatically refreshed every 10 minutes)

About weather observations | Map of weather stations | Latest weather observations for NT | Other Formats
Station Details ID: 002064 Name: ARGYLE AERODROME Lat: -16.64 Lon: 128.45 Height: 164.0 m
Data from the previous 72 hours. | See also: Recent months at Argyle
Date/Time
CST
Temp
°C
App
Temp
°C
Dew
Point
°C
Rel
Hum
%
Delta-T
°C
Wind Press
QNH
hPa
Press
MSL
hPa
Rain since
9am
mm
Dir  Spd
km/h
Gust
km/h
Spd
kts
Gust
kts
28/11:30pm 32.9 31.2 12.6 29 12.2 NNW 13 17 7 9 1010.4 - 0.0
28/10:30pm 35.0 32.7 9.1 20 14.9 WSW 11 19 6 10 1009.8 - 0.0
28/09:30pm 34.5 32.9 10.1 22 14.2 S 9 15 5 8 1009.3 - 0.0
28/09:00pm 35.1 32.6 9.6 21 14.8 SSW 13 17 7 9 1008.9 - 0.0
28/08:00pm 36.2 33.8 10.2 20 15.3 SW 13 17 7 9 1008.3 - 0.0
28/07:30pm 37.1 33.7 9.0 18 16.3 SW 17 22 9 12 1007.9 1006.8 0.0
28/07:00pm 37.1 34.1 9.3 18 16.2 W 15 20 8 11 1007.6 - 0.0
28/06:30pm 37.7 34.3 9.0 17 16.6 WSW 17 20 9 11 1007.3 - 0.0
28/06:00pm 38.1 36.2 9.1 17 16.9 SSW 9 19 5 10 1007.0 - 0.0
28/05:30pm 38.2 34.5 9.6 17 16.8 SW 19 28 10 15 1006.8 - 0.0
28/05:00pm 39.1 35.0 8.7 16 17.7 SW 20 32 11 17 1006.6 - 0.0
28/04:30pm 39.1 34.6 8.7 16 17.7 W 22 26 12 14 1006.7 1005.6 0.0
28/04:00pm 38.5 34.9 9.9 18 16.9 SW 19 32 10 17 1007.0 - 0.0
28/03:30pm 38.6 34.7 9.5 17 17.1 WSW 20 32 11 17 1007.4 - 0.0
28/03:00pm 39.2 34.4 8.9 16 17.7 W 24 33 13 18 1007.5 - 0.0
28/02:30pm 38.8 34.9 8.7 16 17.5 WSW 19 26 10 14 1008.0 - 0.0
28/02:00pm 37.9 33.4 8.7 17 16.9 WSW 22 32 12 17 1008.5 - 0.0
28/01:30pm 39.3 34.6 9.4 16 17.6 WNW 24 35 13 19 1008.9 1007.8 0.0
28/01:00pm 38.2 34.5 10.2 18 16.6 WSW 20 28 11 15 1009.6 - 0.0
28/12:30pm 38.0 34.5 10.3 19 16.4 WNW 19 30 10 16 1010.1 - 0.0
28/12:00pm 37.3 33.6 10.2 19 16.0 WSW 20 32 11 17 1010.6 - 0.0
28/11:30am 36.5 32.9 10.7 21 15.3 WSW 20 32 11 17 1011.1 - 0.0
28/11:00am 36.1 31.4 10.5 21 15.1 W 26 39 14 21 1011.7 - 0.0
28/10:30am 35.3 30.9 10.4 22 14.6 WSW 24 35 13 19 1011.8 1010.8 0.0
28/10:00am 34.5 31.1 10.4 23 14.1 W 19 28 10 15 1011.8 - 0.0
28/09:30am 34.0 30.3 10.3 23 13.8 W 20 33 11 18 1011.8 - 0.0
28/09:00am 33.1 29.1 10.4 25 13.2 SW 22 28 12 15 1011.6 - 0.0
28/08:30am 33.1 29.9 10.1 24 13.3 W 17 22 9 12 1011.3 - 0.0
28/08:00am 32.1 28.5 10.0 25 12.7 W 19 22 10 12 1011.0 - 0.0
28/07:30am 31.3 28.9 10.0 26 12.2 W 13 19 7 10 1010.6 1009.5 0.0
28/07:00am 30.6 27.5 10.4 28 11.6 W 17 26 9 14 1010.2 - 0.0
28/06:00am 29.9 28.1 12.1 33 10.5 WNW 13 17 7 9 1009.3 - 0.0
28/05:30am 30.3 29.4 12.7 34 10.5 NW 9 15 5 8 1008.9 - 0.0
28/05:00am 30.7 30.3 13.0 33 10.6 N 7 11 4 6 1008.7 - 0.0
28/04:30am 29.6 29.9 15.0 41 9.0 E 7 9 4 5 1008.5 - 0.0
28/04:00am 30.8 29.7 14.3 36 10.1 N 13 15 7 8 1008.2 - 0.0
28/03:30am 30.9 29.7 15.1 38 9.8 NNW 15 19 8 10 1008.3 - 0.0
28/03:00am 31.1 29.4 15.8 39 9.6 NNW 19 24 10 13 1008.4 - 0.0
28/02:00am 31.3 28.1 16.2 40 9.5 NW 28 35 15 19 1008.8 - 0.0
28/01:30am 31.3 28.9 16.4 40 9.4 NW 24 32 13 17 1009.2 1008.1 0.0
28/01:00am 31.5 28.7 16.3 40 9.6 NW 26 33 14 18 1009.3 - 0.0
28/12:30am 31.6 29.9 16.2 39 9.7 NW 20 28 11 15 1009.6 - 0.0
28/12:00am 31.5 29.7 15.9 39 9.8 NNW 20 28 11 15 1009.9 - 0.0
 
Date/Time
CST
Temp
°C
App
Temp
°C
Dew
Point
°C
Rel
Hum
%
Delta-T
°C
Wind Press
QNH
hPa
Press
MSL
hPa
Rain since
9am
mm
Dir  Spd
km/h
Gust
km/h
Spd
kts
Gust
kts
27/11:30pm 31.4 30.0 15.5 38 9.9 NNW 17 26 9 14 1010.1 - 0.0
27/11:00pm 31.6 30.1 15.4 37 10.1 NNW 17 22 9 12 1010.3 - 0.0
27/10:30pm 32.0 29.1 15.1 36 10.5 NNW 24 33 13 18 1010.1 1009.0 0.0
27/10:00pm 32.6 29.8 15.3 35 10.8 N 24 33 13 18 1010.0 - 0.0
27/09:30pm 33.2 29.8 14.7 32 11.5 N 26 35 14 19 1009.5 - 0.0
27/09:00pm 34.7 32.1 13.7 28 12.9 N 20 35 11 19 1009.0 - 0.0
27/08:00pm 35.1 33.6 13.2 26 13.4 NE 13 17 7 9 1008.2 - 0.0
27/07:30pm 35.6 34.0 12.8 25 13.9 NE 13 17 7 9 1008.0 - 0.0
27/07:00pm 36.1 34.3 12.1 23 14.5 NE 13 20 7 11 1007.5 - 0.0
27/06:30pm 36.7 34.0 11.6 22 15.1 NE 17 24 9 13 1007.1 - 0.0
27/06:00pm 37.3 34.3 10.5 20 15.9 NE 17 28 9 15 1006.8 - 0.0
27/05:30pm 37.9 34.1 9.1 17 16.7 NE 19 26 10 14 1006.5 - 0.0
27/05:00pm 38.7 35.9 8.5 16 17.5 NNE 13 20 7 11 1006.4 - 0.0
27/04:30pm 39.0 36.6 7.2 14 18.1 W 9 15 5 8 1006.4 1005.3 0.0
27/04:00pm 40.4 37.9 8.3 14 18.6 ENE 11 22 6 12 1006.4 - 0.0
27/03:30pm 38.8 35.7 8.7 16 17.5 N 15 24 8 13 1006.7 - 0.0
27/03:00pm 39.0 34.9 7.9 15 17.9 N 19 24 10 13 1006.9 - 0.0
27/02:30pm 40.4 36.5 8.6 14 18.5 NNW 19 32 10 17 1007.3 - 0.0
27/02:00pm 38.7 35.9 8.5 16 17.5 WNW 13 22 7 12 1007.7 - 0.0
27/01:30pm 38.6 36.4 9.2 17 17.2 NW 11 19 6 10 1008.4 1007.3 0.0
27/01:00pm 37.7 35.8 9.2 17 16.6 WNW 9 13 5 7 1009.2 - 0.0
27/12:30pm 37.4 34.8 9.2 18 16.4 WSW 13 20 7 11 1009.9 - 0.0
27/12:00pm 37.0 34.8 9.3 18 16.1 SSW 11 20 6 11 1010.5 - 0.0
27/11:30am 35.9 33.7 9.3 19 15.4 SSW 11 22 6 12 1011.2 - 0.0
27/11:00am 35.8 33.4 8.5 19 15.6 SSW 11 24 6 13 1011.6 - 0.0
27/10:30am 35.7 32.6 7.1 17 16.0 WSW 13 22 7 12 1012.0 1011.0 0.0
27/10:00am 34.1 30.6 8.8 21 14.4 SW 17 26 9 14 1012.1 - 0.0
27/09:30am 34.0 30.8 11.1 24 13.5 SW 19 28 10 15 1011.9 - 0.0
27/09:00am 32.2 31.9 14.3 33 11.0 WNW 9 11 5 6 1011.8 - 0.0
27/08:00am 29.2 29.2 15.2 42 8.6 N 9 13 5 7 1011.6 - 0.0
27/07:30am 28.8 29.1 15.1 43 8.4 NW 7 9 4 5 1011.3 1010.2 0.0
27/07:00am 27.3 27.6 15.0 47 7.5 W 7 9 4 5 1010.7 - 0.0
27/06:30am 27.2 27.7 15.5 48 7.2 WNW 7 9 4 5 1010.5 - 0.0
27/06:00am 27.9 28.6 16.0 48 7.4 NNW 7 9 4 5 1010.2 - 0.0
27/05:30am 28.0 30.2 16.5 49 7.2 CALM 0 0 0 0 1010.0 - 0.0
27/05:00am 28.7 30.7 16.0 46 7.9 CALM 0 0 0 0 1009.6 - 0.0
27/04:30am 28.8 30.8 16.1 46 7.9 CALM 0 0 0 0 1009.4 1008.3 0.0
27/04:00am 29.3 29.7 15.4 42 8.6 NNW 7 9 4 5 1009.4 - 0.0
27/03:30am 29.1 31.0 15.7 44 8.3 CALM 0 0 0 0 1009.4 - 0.0
27/03:00am 29.3 30.4 15.6 43 8.5 W 4 6 2 3 1009.5 - 0.0
27/02:30am 30.1 31.2 14.6 39 9.5 NW 2 9 1 5 1009.8 - 0.0
27/02:00am 30.1 29.9 14.8 39 9.4 WSW 9 17 5 9 1010.1 - 0.0
27/01:30am 30.1 30.5 14.8 39 9.4 N 6 - 3 - - 1009.1 -
27/01:00am 30.4 29.9 13.7 36 10.1 NNW 9 13 5 7 1010.5 - 0.0
27/12:30am 31.1 28.8 12.9 32 10.9 NNW 17 19 9 10 1010.8 - 0.0
27/12:00am 31.7 28.9 12.6 31 11.4 N 19 22 10 12 1011.1 - 0.0
 
Date/Time
CST
Temp
°C
App
Temp
°C
Dew
Point
°C
Rel
Hum
%
Delta-T
°C
Wind Press
QNH
hPa
Press
MSL
hPa
Rain since
9am
mm
Dir  Spd
km/h
Gust
km/h
Spd
kts
Gust
kts
26/11:30pm 32.2 28.3 12.0 29 12.0 N 24 28 13 15 1011.1 - 0.0
26/11:00pm 32.4 29.7 13.0 30 11.7 NNW 19 30 10 16 1010.9 - 0.0
26/10:30pm 33.0 30.1 14.1 32 11.6 N 22 32 12 17 1010.7 1009.6 0.0
26/10:00pm 33.7 31.9 14.5 31 11.9 N 17 24 9 13 1010.5 - 0.0
26/09:30pm 34.6 32.6 13.8 28 12.8 N 17 22 9 12 1010.0 - 0.0
26/09:00pm 35.1 33.4 12.4 25 13.7 N 13 17 7 9 1009.5 - 0.0
26/08:30pm 34.7 34.3 13.0 27 13.2 NE 7 9 4 5 1008.9 - 0.0
26/08:00pm 34.7 34.7 13.5 28 13.0 E 6 7 3 4 1008.6 - 0.0
26/07:30pm 35.6 34.6 12.3 24 14.1 NE 9 13 5 7 1008.3 1007.2 0.0
26/07:00pm 36.5 35.2 11.2 21 15.1 NE 9 13 5 7 1007.9 - 0.0
26/06:30pm 37.7 35.3 8.7 17 16.7 ENE 11 17 6 9 1007.5 - 0.0
26/06:00pm 38.2 34.9 8.1 16 17.3 E 15 20 8 11 1007.1 - 0.0
26/05:30pm 39.1 34.7 7.4 14 18.1 E 20 28 11 15 1006.7 - 0.0
26/05:00pm 39.3 36.9 8.5 15 17.9 SE 11 24 6 13 1006.6 - 0.0
26/04:30pm 39.9 36.7 5.1 12 19.3 NNW 11 19 6 10 1006.6 1005.5 0.0
26/04:00pm 39.5 34.7 4.5 11 19.1 NW 19 26 10 14 1006.7 - 0.0
26/03:30pm 39.7 37.3 7.1 14 18.6 E 9 20 5 11 1006.8 - 0.0
26/02:30pm 39.1 36.2 4.6 12 18.9 ENE 9 19 5 10 1007.3 - 0.0
26/01:30pm 38.6 35.7 4.9 12 18.5 S 9 20 5 11 1008.5 - 0.0
26/01:00pm 38.0 35.1 4.9 13 18.1 S 9 20 5 11 1009.0 - 0.0
26/12:30pm 37.6 34.6 6.2 14 17.5 ESE 11 17 6 9 1009.5 - 0.0
26/12:00pm 37.1 33.5 5.0 14 17.5 SE 13 19 7 10 1010.0 - 0.0
26/11:30am 37.1 33.2 3.5 12 17.9 SW 13 26 7 14 1010.3 - 0.0
26/11:00am 36.7 32.6 4.1 13 17.5 S 15 24 8 13 1010.5 - 0.0
26/10:30am 36.0 31.1 5.0 14 16.8 SW 20 30 11 16 1010.7 1009.6 0.0
26/10:00am 35.0 31.1 7.3 18 15.5 SSW 17 24 9 13 1010.9 - 0.0
26/09:30am 34.1 29.7 7.4 19 14.9 SSW 20 33 11 18 1010.8 - 0.0
26/09:00am 32.4 31.8 14.6 34 11.0 S 11 17 6 9 1010.9 - 0.0
26/08:30am 31.3 32.2 16.0 39 9.6 SE 6 11 3 6 1010.8 - 0.0
26/08:00am 30.5 32.8 16.8 43 8.7 CALM 0 0 0 0 1010.5 - 0.0
26/07:30am 28.5 30.9 17.1 50 7.2 CALM 0 0 0 0 1010.0 1008.9 0.0
26/07:00am 26.5 27.1 15.4 50 6.8 S 6 9 3 5 1009.5 - 0.0
26/06:30am 27.8 28.4 15.7 47 7.5 ENE 7 9 4 5 1009.0 - 0.0
26/06:00am 27.0 27.4 15.4 49 7.1 E 7 9 4 5 1008.7 - 0.0
26/05:30am 27.6 29.7 16.2 49 7.1 CALM 0 0 0 0 1008.4 - 0.0
26/05:00am 27.8 29.5 15.3 46 7.7 CALM 0 0 0 0 1008.2 - 0.0
26/04:30am 28.5 28.8 15.0 43 8.3 S 7 9 4 5 1008.1 1007.0 0.0
26/04:00am 28.9 30.5 15.9 45 8.1 SSW 2 6 1 3 1008.2 - 0.0
26/03:30am 29.0 29.4 15.2 43 8.5 W 7 9 4 5 1008.5 - 0.0
26/03:00am 29.2 30.3 14.6 41 8.9 SW 2 9 1 5 1008.6 - 0.0
26/02:30am 29.7 28.9 14.0 38 9.5 NNW 11 13 6 7 1008.8 - 0.0

Other Formats:

Comma delimited format used in spreadsheet applications
http://www.bom.gov.au/fwo/IDD60801/IDD60801.94217.axf

JavaScript Object Notation format (JSON) in row-major order
http://www.bom.gov.au/fwo/IDD60801/IDD60801.94217.json